createdAt,value
2023-05-03T00:02:13.073Z,4.88
2023-05-03T00:04:41.933Z,4.86
2023-05-03T00:07:09.313Z,4.83
2023-05-03T00:09:36.630Z,4.81
2023-05-03T00:12:06.058Z,4.79
2023-05-03T00:14:32.983Z,4.78
2023-05-03T00:17:00.104Z,4.77
2023-05-03T00:19:33.109Z,4.75
2023-05-03T00:22:00.170Z,4.73
2023-05-03T00:24:27.580Z,4.70
2023-05-03T00:26:54.945Z,4.68
2023-05-03T00:29:23.136Z,4.66
2023-05-03T00:31:50.545Z,4.65
2023-05-03T00:34:17.844Z,4.64
2023-05-03T00:36:45.225Z,4.62
2023-05-03T00:39:12.869Z,4.58
2023-05-03T00:41:40.656Z,4.57
2023-05-03T00:44:07.933Z,4.58
2023-05-03T00:46:35.347Z,4.59
2023-05-03T00:49:02.818Z,4.61
2023-05-03T00:51:30.301Z,4.62
2023-05-03T00:53:57.722Z,4.63
2023-05-03T00:56:25.140Z,4.62
2023-05-03T00:58:52.629Z,4.61
2023-05-03T01:01:20.196Z,4.60
2023-05-03T01:03:48.270Z,4.59
2023-05-03T01:06:19.126Z,4.58
2023-05-03T01:09:01.897Z,4.56
2023-05-03T01:11:41.496Z,4.52
2023-05-03T01:14:23.511Z,4.50
2023-05-03T01:16:54.398Z,4.47
2023-05-03T01:19:39.177Z,4.46
2023-05-03T01:22:44.394Z,4.43
2023-05-03T01:25:13.007Z,4.38
2023-05-03T01:27:41.296Z,4.33
2023-05-03T01:30:10.351Z,4.29
2023-05-03T01:33:09.234Z,4.25
2023-05-03T01:36:00.588Z,4.22
2023-05-03T01:38:34.346Z,4.18
2023-05-03T01:41:03.064Z,4.15
2023-05-03T01:43:31.924Z,4.12
2023-05-03T01:45:59.269Z,4.10
2023-05-03T01:48:26.756Z,4.07
2023-05-03T01:50:54.239Z,4.04
2023-05-03T01:53:21.649Z,4.02
2023-05-03T01:55:49.254Z,3.99
2023-05-03T01:58:16.605Z,3.96
2023-05-03T02:00:45.917Z,3.93
2023-05-03T02:03:13.570Z,3.92
2023-05-03T02:05:41.650Z,3.91
2023-05-03T02:08:09.339Z,3.89
2023-05-03T02:10:36.937Z,3.88
2023-05-03T02:13:04.398Z,3.87
2023-05-03T02:15:32.399Z,3.87
2023-05-03T02:18:02.882Z,3.88
2023-05-03T02:20:35.549Z,3.88
2023-05-03T02:23:03.159Z,3.88
2023-05-03T02:25:30.960Z,3.87
2023-05-03T02:27:58.507Z,3.88
2023-05-03T02:30:26.341Z,3.87
2023-05-03T02:32:53.844Z,3.87
2023-05-03T02:35:21.333Z,3.86
2023-05-03T02:37:48.883Z,3.84
2023-05-03T02:40:16.953Z,3.81
2023-05-03T02:42:44.413Z,3.80
2023-05-03T02:45:12.695Z,3.79
2023-05-03T02:47:39.959Z,3.78
2023-05-03T02:50:08.139Z,3.78
2023-05-03T02:52:36.085Z,3.80
2023-05-03T02:55:03.628Z,3.81
2023-05-03T02:57:31.233Z,3.83
2023-05-03T02:59:58.985Z,3.87
2023-05-03T03:02:26.782Z,3.92
2023-05-03T03:04:54.656Z,3.99
2023-05-03T03:07:23.285Z,4.04
2023-05-03T03:09:54.000Z,4.11
2023-05-03T03:12:22.057Z,4.16
2023-05-03T03:14:49.530Z,4.23
2023-05-03T03:17:16.906Z,4.31
2023-05-03T03:19:44.546Z,4.40
2023-05-03T03:22:12.624Z,4.50
2023-05-03T03:24:40.286Z,4.59
2023-05-03T03:27:08.013Z,4.68
2023-05-03T03:29:35.562Z,4.75
2023-05-03T03:32:04.179Z,4.83
2023-05-03T03:34:32.644Z,4.90
2023-05-03T03:37:00.240Z,4.98
2023-05-03T03:39:27.965Z,5.08
2023-05-03T03:41:55.499Z,5.18
2023-05-03T03:44:22.867Z,5.29
2023-05-03T03:46:50.318Z,5.39
2023-05-03T03:49:18.107Z,5.49
2023-05-03T03:51:45.753Z,5.59
2023-05-03T03:54:14.279Z,5.71
2023-05-03T03:56:43.155Z,5.83
2023-05-03T03:59:10.765Z,5.96
2023-05-03T04:01:38.416Z,6.08
2023-05-03T04:04:06.249Z,6.20
2023-05-03T04:06:33.748Z,6.33
2023-05-03T04:09:04.979Z,6.46
2023-05-03T04:11:34.076Z,6.62
2023-05-03T04:14:03.120Z,6.77
2023-05-03T04:16:30.906Z,6.92
2023-05-03T04:18:59.349Z,7.08
2023-05-03T04:21:28.599Z,7.23
2023-05-03T04:23:56.215Z,7.39
2023-05-03T04:26:31.913Z,7.55
2023-05-03T04:29:20.164Z,7.74
2023-05-03T04:31:48.022Z,7.91
2023-05-03T04:34:16.305Z,8.08
2023-05-03T04:36:47.219Z,8.25
2023-05-03T04:39:15.695Z,8.43
2023-05-03T04:41:43.305Z,8.60
2023-05-03T04:44:10.840Z,8.76
2023-05-03T04:46:39.914Z,8.92
2023-05-03T04:49:07.742Z,9.06
2023-05-03T04:51:35.266Z,9.20
2023-05-03T04:54:03.098Z,9.35
2023-05-03T04:56:31.808Z,9.49
2023-05-03T04:59:07.176Z,9.63
2023-05-03T05:01:34.916Z,9.74
2023-05-03T05:04:03.424Z,9.87
2023-05-03T05:06:39.089Z,10.01
2023-05-03T05:09:07.776Z,10.14
2023-05-03T05:11:35.459Z,10.29
2023-05-03T05:14:03.823Z,10.44
2023-05-03T05:16:38.550Z,10.62
2023-05-03T05:19:13.331Z,10.81
2023-05-03T05:21:41.344Z,11.00
2023-05-03T05:24:09.579Z,11.18
2023-05-03T05:26:37.577Z,11.35
2023-05-03T05:29:05.708Z,11.52
2023-05-03T05:31:33.271Z,11.69
2023-05-03T05:34:01.131Z,11.86
2023-05-03T05:36:28.998Z,12.05
2023-05-03T05:38:56.536Z,12.25
2023-05-03T05:41:24.320Z,12.45
2023-05-03T05:43:51.960Z,12.64
2023-05-03T05:46:21.690Z,12.81
2023-05-03T05:48:51.536Z,12.96
2023-05-03T05:51:20.413Z,13.09
2023-05-03T05:53:47.816Z,13.25
2023-05-03T05:56:15.762Z,13.38
2023-05-03T05:58:43.382Z,13.49
2023-05-03T06:01:11.115Z,13.61
2023-05-03T06:03:39.493Z,13.74
2023-05-03T06:06:08.730Z,13.89
2023-05-03T06:08:36.589Z,14.04
2023-05-03T06:11:05.479Z,14.21
2023-05-03T06:13:34.931Z,14.36
2023-05-03T06:16:03.699Z,14.50
2023-05-03T06:18:31.164Z,14.66
2023-05-03T06:20:58.532Z,14.82
2023-05-03T06:23:28.170Z,14.94
2023-05-03T06:25:56.698Z,15.10
2023-05-03T06:28:24.774Z,15.23
2023-05-03T06:30:54.849Z,15.29
2023-05-03T06:33:22.448Z,15.34
2023-05-03T06:35:52.155Z,15.44
2023-05-03T06:38:19.840Z,15.53
2023-05-03T06:40:47.773Z,15.60
2023-05-03T06:43:15.073Z,15.64
2023-05-03T06:45:45.880Z,15.65
2023-05-03T06:48:13.329Z,15.72
2023-05-03T06:50:41.011Z,15.79
2023-05-03T06:53:09.379Z,15.89
2023-05-03T06:55:37.138Z,15.99
2023-05-03T06:58:10.248Z,16.11
2023-05-03T07:00:40.610Z,16.20
2023-05-03T07:03:08.285Z,16.31
2023-05-03T07:05:35.961Z,16.43
2023-05-03T07:08:03.965Z,16.56
2023-05-03T07:10:31.614Z,16.68
2023-05-03T07:12:59.098Z,16.80
2023-05-03T07:15:26.471Z,16.92
2023-05-03T07:17:53.752Z,17.00
2023-05-03T07:20:21.152Z,17.04
2023-05-03T07:22:48.693Z,17.12
2023-05-03T07:25:17.882Z,17.21
2023-05-03T07:27:45.562Z,17.25
2023-05-03T07:30:13.317Z,17.28
2023-05-03T07:32:40.899Z,17.36
2023-05-03T07:35:09.462Z,17.45
2023-05-03T07:37:38.698Z,17.55
2023-05-03T07:40:07.390Z,17.67
2023-05-03T07:42:34.604Z,17.76
2023-05-03T07:45:02.358Z,17.83
2023-05-03T07:47:29.895Z,17.92
2023-05-03T07:49:57.291Z,18.04
2023-05-03T07:52:24.620Z,18.14
2023-05-03T07:54:53.308Z,18.26
2023-05-03T07:57:20.932Z,18.38
2023-05-03T07:59:48.255Z,18.50
2023-05-03T08:02:15.619Z,18.53
2023-05-03T08:04:43.401Z,18.59
2023-05-03T08:07:11.892Z,18.69
2023-05-03T08:09:39.944Z,18.78
2023-05-03T08:12:07.196Z,18.83
2023-05-03T08:14:34.441Z,18.80
2023-05-03T08:17:01.798Z,18.86
2023-05-03T08:19:29.153Z,19.00
2023-05-03T08:21:56.635Z,19.07
2023-05-03T08:24:23.921Z,19.10
2023-05-03T08:26:51.944Z,19.17
2023-05-03T08:29:19.510Z,19.17
2023-05-03T08:31:47.523Z,19.23
2023-05-03T08:34:14.466Z,19.37
2023-05-03T08:36:41.874Z,19.47
2023-05-03T08:39:10.630Z,19.45
2023-05-03T08:41:38.157Z,19.44
2023-05-03T08:44:06.431Z,19.48
2023-05-03T08:46:37.524Z,19.56
2023-05-03T08:49:06.950Z,19.62
2023-05-03T08:51:34.394Z,19.73
2023-05-03T08:54:01.678Z,19.83
2023-05-03T08:56:30.488Z,19.97
2023-05-03T08:59:01.649Z,20.02
2023-05-03T09:01:29.218Z,20.09
2023-05-03T09:03:56.642Z,20.22
2023-05-03T09:06:27.673Z,20.31
2023-05-03T09:08:55.418Z,20.39
2023-05-03T09:11:27.954Z,20.46
2023-05-03T09:13:55.106Z,20.50
2023-05-03T09:16:29.719Z,20.56
2023-05-03T09:18:58.606Z,20.65
2023-05-03T09:21:25.449Z,20.77
2023-05-03T09:23:53.762Z,20.79
2023-05-03T09:26:28.337Z,20.79
2023-05-03T09:28:56.774Z,20.69
2023-05-03T09:31:24.360Z,20.57
2023-05-03T09:33:53.806Z,20.63
2023-05-03T09:36:21.326Z,20.74
2023-05-03T09:38:49.422Z,20.88
2023-05-03T09:41:16.930Z,21.03
2023-05-03T09:43:55.695Z,21.14
2023-05-03T09:46:25.287Z,21.16
2023-05-03T09:48:55.599Z,21.12
2023-05-03T09:51:26.387Z,21.03
2023-05-03T09:53:53.560Z,21.16
2023-05-03T09:56:26.613Z,21.32
2023-05-03T09:58:56.892Z,21.35
2023-05-03T10:01:24.468Z,21.36
2023-05-03T10:03:52.071Z,21.37
2023-05-03T10:06:27.088Z,21.42
2023-05-03T10:09:12.476Z,21.34
2023-05-03T10:11:40.567Z,21.28
2023-05-03T10:14:08.331Z,21.34
2023-05-03T10:16:37.545Z,21.37
2023-05-03T10:19:05.235Z,21.40
2023-05-03T10:21:57.307Z,21.43
2023-05-03T10:24:25.562Z,21.27
2023-05-03T10:26:53.202Z,21.26
2023-05-03T10:29:46.298Z,21.36
2023-05-03T10:32:36.676Z,21.47
2023-05-03T10:35:13.531Z,21.58
2023-05-03T10:37:41.581Z,21.64
2023-05-03T10:40:17.985Z,21.78
2023-05-03T10:42:54.766Z,21.91
2023-05-03T10:45:28.687Z,21.95
2023-05-03T10:48:11.604Z,21.99
2023-05-03T10:50:40.185Z,22.03
2023-05-03T10:53:08.035Z,22.01
2023-05-03T10:55:36.426Z,21.91
2023-05-03T10:58:04.152Z,21.84
2023-05-03T11:00:38.816Z,21.80
2023-05-03T11:03:12.365Z,21.84
2023-05-03T11:05:40.104Z,22.00
2023-05-03T11:08:14.631Z,22.20
2023-05-03T11:10:42.351Z,22.37
2023-05-03T11:13:09.876Z,22.43
2023-05-03T11:15:37.656Z,22.46
2023-05-03T11:18:08.548Z,22.51
2023-05-03T11:20:36.936Z,22.58
2023-05-03T11:23:04.869Z,22.66
2023-05-03T11:25:33.706Z,22.67
2023-05-03T11:28:02.223Z,22.67
2023-05-03T11:30:30.032Z,22.65
2023-05-03T11:32:57.651Z,22.61
2023-05-03T11:35:27.206Z,22.59
2023-05-03T11:37:54.794Z,22.51
2023-05-03T11:40:22.347Z,22.42
2023-05-03T11:43:00.243Z,22.49
2023-05-03T11:45:30.755Z,22.53
2023-05-03T11:47:58.334Z,22.60
2023-05-03T11:50:51.898Z,22.59
2023-05-03T11:53:19.318Z,22.65
2023-05-03T11:55:48.564Z,22.71
2023-05-03T11:58:17.899Z,22.79
2023-05-03T12:00:47.032Z,22.91
2023-05-03T12:03:33.750Z,23.07
2023-05-03T12:06:02.600Z,23.24
2023-05-03T12:08:32.412Z,23.23
2023-05-03T12:11:03.108Z,23.26
2023-05-03T12:13:34.620Z,23.29
2023-05-03T12:18:51.462Z,23.38
2023-05-03T12:23:55.767Z,23.40
2023-05-03T12:26:25.802Z,23.32
2023-05-03T12:28:56.055Z,23.36
2023-05-03T12:31:24.968Z,23.46
2023-05-03T12:34:23.182Z,23.52
2023-05-03T12:36:43.967Z,23.60
2023-05-03T12:39:15.872Z,23.63
2023-05-03T12:42:06.254Z,23.54
2023-05-03T12:44:34.375Z,23.43
2023-05-03T12:47:04.373Z,23.44
2023-05-03T12:49:32.408Z,23.57
2023-05-03T12:54:34.699Z,23.99
2023-05-03T12:57:08.520Z,24.06
2023-05-03T12:59:41.667Z,23.98
2023-05-03T13:07:17.300Z,24.04
2023-05-03T13:12:34.375Z,24.03
2023-05-03T13:15:04.913Z,24.08
2023-05-03T13:17:32.778Z,24.19
2023-05-03T13:20:00.557Z,24.20
2023-05-03T13:22:28.073Z,24.27
2023-05-03T13:24:56.418Z,24.44
2023-05-03T13:27:23.749Z,24.57
2023-05-03T13:29:51.825Z,24.58
2023-05-03T13:32:19.426Z,24.36
2023-05-03T13:34:49.995Z,24.35
2023-05-03T13:37:19.492Z,24.48
2023-05-03T13:39:47.080Z,24.55
2023-05-03T13:42:14.414Z,24.72
2023-05-03T13:44:42.799Z,24.97
2023-05-03T13:47:11.146Z,25.14
2023-05-03T13:49:38.543Z,25.38
2023-05-03T13:52:06.168Z,25.43
2023-05-03T13:54:33.510Z,25.39
2023-05-03T13:57:01.561Z,25.51
2023-05-03T13:59:29.023Z,25.57
2023-05-03T14:01:56.691Z,25.54
2023-05-03T14:04:25.789Z,25.47
2023-05-03T14:06:56.906Z,25.50
2023-05-03T14:09:24.651Z,25.56
2023-05-03T14:11:52.447Z,25.55
2023-05-03T14:14:22.857Z,25.57
2023-05-03T14:16:50.322Z,25.61
2023-05-03T14:19:18.245Z,25.67
2023-05-03T14:21:49.529Z,25.70
2023-05-03T14:24:16.937Z,25.68
2023-05-03T14:26:44.257Z,25.74
2023-05-03T14:29:11.632Z,25.94
2023-05-03T14:31:42.678Z,25.96
2023-05-03T14:34:10.124Z,25.88
2023-05-03T14:36:39.865Z,25.93
2023-05-03T14:39:07.111Z,26.08
2023-05-03T14:41:34.751Z,26.05
2023-05-03T14:44:02.456Z,25.95
2023-05-03T14:46:29.852Z,25.90
2023-05-03T14:48:57.406Z,25.85
2023-05-03T14:51:25.024Z,25.81
2023-05-03T14:53:52.858Z,25.85
2023-05-03T14:56:20.131Z,25.76
2023-05-03T14:58:47.519Z,25.66
2023-05-03T15:01:21.634Z,25.61
2023-05-03T15:03:49.753Z,25.59
2023-05-03T15:06:29.200Z,25.69
2023-05-03T15:08:57.083Z,25.73
2023-05-03T15:11:24.469Z,25.71
2023-05-03T15:13:52.138Z,25.72
2023-05-03T15:16:19.700Z,25.70
2023-05-03T15:18:50.113Z,25.66
2023-05-03T15:21:19.472Z,25.75
2023-05-03T15:23:49.718Z,25.76
2023-05-03T15:26:17.388Z,25.71
2023-05-03T15:28:44.672Z,25.77
2023-05-03T15:31:15.535Z,25.87
2023-05-03T15:33:43.705Z,25.91
2023-05-03T15:36:12.251Z,25.92
2023-05-03T15:38:40.922Z,25.91
2023-05-03T15:41:08.250Z,25.94
2023-05-03T15:43:35.625Z,25.85
2023-05-03T15:46:03.240Z,25.62
2023-05-03T15:48:31.259Z,25.27
2023-05-03T15:50:59.265Z,24.76
2023-05-03T15:53:27.425Z,24.15
2023-05-03T15:55:58.302Z,23.58
2023-05-03T15:58:26.012Z,23.04
2023-05-03T16:00:54.447Z,22.57
2023-05-03T16:03:21.925Z,22.14
2023-05-03T16:05:49.761Z,21.73
2023-05-03T16:08:17.294Z,21.36
2023-05-03T16:10:44.788Z,21.03
2023-05-03T16:13:12.732Z,20.71
2023-05-03T16:15:40.595Z,20.40
2023-05-03T16:18:08.189Z,20.11
2023-05-03T16:20:35.653Z,19.87
2023-05-03T16:23:03.293Z,19.72
2023-05-03T16:25:31.353Z,19.75
2023-05-03T16:27:58.628Z,19.83
2023-05-03T16:30:26.245Z,19.81
2023-05-03T16:32:53.758Z,19.70
2023-05-03T16:35:21.091Z,19.51
2023-05-03T16:37:49.598Z,19.31
2023-05-03T16:40:18.045Z,19.04
2023-05-03T16:42:45.312Z,18.75
2023-05-03T16:45:12.559Z,18.45
2023-05-03T16:47:40.069Z,18.17
2023-05-03T16:50:09.398Z,17.92
2023-05-03T16:52:41.432Z,17.67
2023-05-03T16:55:10.913Z,17.40
2023-05-03T16:57:38.669Z,17.15
2023-05-03T17:00:09.730Z,16.92
2023-05-03T17:02:38.623Z,16.70
2023-05-03T17:05:06.705Z,16.51
2023-05-03T17:07:34.260Z,16.34
2023-05-03T17:10:06.846Z,16.16
2023-05-03T17:12:34.814Z,15.96
2023-05-03T17:15:02.464Z,15.76
2023-05-03T17:17:31.709Z,15.57
2023-05-03T17:19:59.384Z,15.40
2023-05-03T17:22:28.252Z,15.25
2023-05-03T17:24:58.062Z,15.10
2023-05-03T17:27:25.785Z,14.94
2023-05-03T17:29:57.304Z,14.82
2023-05-03T17:32:25.131Z,14.70
2023-05-03T17:34:52.546Z,14.58
2023-05-03T17:37:19.751Z,14.45
2023-05-03T17:39:46.978Z,14.33
2023-05-03T17:42:14.474Z,14.23
2023-05-03T17:44:41.848Z,14.15
2023-05-03T17:47:10.541Z,14.07
2023-05-03T17:49:38.480Z,13.97
2023-05-03T17:52:06.809Z,13.88
2023-05-03T17:54:35.397Z,13.80
2023-05-03T17:57:03.593Z,13.70
2023-05-03T17:59:31.276Z,13.61
2023-05-03T18:01:58.823Z,13.51
2023-05-03T18:04:27.750Z,13.40
2023-05-03T18:06:55.132Z,13.28
2023-05-03T18:09:26.479Z,13.17
2023-05-03T18:11:54.457Z,13.07
2023-05-03T18:14:21.908Z,13.00
2023-05-03T18:16:49.333Z,12.94
2023-05-03T18:19:16.740Z,12.88
2023-05-03T18:21:44.483Z,12.80
2023-05-03T18:24:12.265Z,12.71
2023-05-03T18:26:39.810Z,12.62
2023-05-03T18:29:33.272Z,12.52
2023-05-03T18:32:00.629Z,12.42
2023-05-03T18:34:28.069Z,12.33
2023-05-03T18:36:55.588Z,12.26
2023-05-03T18:39:23.100Z,12.18
2023-05-03T18:41:50.806Z,12.10
2023-05-03T18:44:18.255Z,12.02
2023-05-03T18:46:45.582Z,11.95
2023-05-03T18:49:13.177Z,11.89
2023-05-03T18:51:40.655Z,11.83
2023-05-03T18:54:08.204Z,11.77
2023-05-03T18:56:35.913Z,11.70
2023-05-03T18:59:03.218Z,11.63
2023-05-03T19:01:31.032Z,11.55
2023-05-03T19:03:58.570Z,11.48
2023-05-03T19:06:25.997Z,11.42
2023-05-03T19:08:54.250Z,11.35
2023-05-03T19:11:21.992Z,11.30
2023-05-03T19:13:49.693Z,11.25
2023-05-03T19:16:17.388Z,11.20
2023-05-03T19:18:45.850Z,11.13
2023-05-03T19:21:13.279Z,11.08
2023-05-03T19:23:40.718Z,11.03
2023-05-03T19:26:08.076Z,10.97
2023-05-03T19:28:35.662Z,10.93
2023-05-03T19:31:04.245Z,10.88
2023-05-03T19:33:32.015Z,10.83
2023-05-03T19:36:06.704Z,10.79
2023-05-03T19:38:36.476Z,10.76
2023-05-03T19:41:12.088Z,10.73
2023-05-03T19:43:40.066Z,10.69
2023-05-03T19:46:07.695Z,10.64
2023-05-03T19:48:35.347Z,10.58
2023-05-03T19:51:05.405Z,10.52
2023-05-03T19:53:34.013Z,10.48
2023-05-03T19:56:02.932Z,10.46
2023-05-03T19:58:32.139Z,10.44
2023-05-03T20:00:59.893Z,10.42
2023-05-03T20:03:27.921Z,10.39
2023-05-03T20:05:55.559Z,10.36
2023-05-03T20:08:24.436Z,10.33
2023-05-03T20:10:52.062Z,10.29
2023-05-03T20:13:19.748Z,10.25
2023-05-03T20:15:47.318Z,10.21
2023-05-03T20:18:14.870Z,10.18
2023-05-03T20:20:42.257Z,10.14
2023-05-03T20:23:09.669Z,10.10
2023-05-03T20:25:36.886Z,10.07
2023-05-03T20:28:05.048Z,10.04
2023-05-03T20:30:32.705Z,10.02
2023-05-03T20:33:00.147Z,9.99
2023-05-03T20:35:27.502Z,9.96
2023-05-03T20:37:55.441Z,9.93
2023-05-03T20:40:22.942Z,9.89
2023-05-03T20:42:50.279Z,9.84
2023-05-03T20:45:17.659Z,9.78
2023-05-03T20:48:13.458Z,9.75
2023-05-03T20:50:42.150Z,9.70
2023-05-03T20:53:10.441Z,9.67
2023-05-03T20:55:38.709Z,9.64
2023-05-03T20:58:06.105Z,9.61
2023-05-03T21:00:33.447Z,9.58
2023-05-03T21:03:01.057Z,9.54
2023-05-03T21:05:28.841Z,9.51
2023-05-03T21:07:55.740Z,9.48
2023-05-03T21:10:22.705Z,9.45
2023-05-03T21:12:49.557Z,9.42
2023-05-03T21:15:16.534Z,9.37
2023-05-03T21:17:43.590Z,9.35
2023-05-03T21:20:10.904Z,9.33
2023-05-03T21:22:38.117Z,9.32
2023-05-03T21:25:06.846Z,9.30
2023-05-03T21:27:33.766Z,9.28
2023-05-03T21:30:01.973Z,9.24
2023-05-03T21:32:29.760Z,9.20
2023-05-03T21:34:57.503Z,9.16
2023-05-03T21:37:25.224Z,9.15
2023-05-03T21:40:01.077Z,9.12
2023-05-03T21:42:29.619Z,9.10
2023-05-03T21:44:56.887Z,9.07
2023-05-03T21:47:24.198Z,9.03
2023-05-03T21:49:51.835Z,9.00
2023-05-03T21:52:19.576Z,8.98
2023-05-03T21:54:47.204Z,8.97
2023-05-03T21:57:14.594Z,8.96
2023-05-03T21:59:42.262Z,8.95
2023-05-03T22:02:09.573Z,8.92
2023-05-03T22:04:37.158Z,8.89
2023-05-03T22:07:04.646Z,8.85
2023-05-03T22:09:32.010Z,8.81
2023-05-03T22:12:01.989Z,8.79
2023-05-03T22:14:31.317Z,8.79
2023-05-03T22:16:58.698Z,8.77
2023-05-03T22:19:28.520Z,8.72
2023-05-03T22:21:56.505Z,8.69
2023-05-03T22:24:23.945Z,8.65
2023-05-03T22:26:51.425Z,8.62
2023-05-03T22:29:18.743Z,8.56
2023-05-03T22:31:46.396Z,8.50
2023-05-03T22:34:14.005Z,8.44
2023-05-03T22:36:41.371Z,8.36
2023-05-03T22:39:08.664Z,8.26
2023-05-03T22:41:36.193Z,8.18
2023-05-03T22:44:03.852Z,8.09
2023-05-03T22:46:31.300Z,8.01
2023-05-03T22:48:58.659Z,7.95
2023-05-03T22:51:26.113Z,7.92
2023-05-03T22:53:53.419Z,7.90
2023-05-03T22:56:20.765Z,7.87
2023-05-03T22:58:48.189Z,7.85
2023-05-03T23:01:15.782Z,7.83
2023-05-03T23:03:43.582Z,7.80
2023-05-03T23:06:11.520Z,7.77
2023-05-03T23:08:38.821Z,7.74
2023-05-03T23:11:06.242Z,7.71
2023-05-03T23:13:33.640Z,7.70
2023-05-03T23:16:01.560Z,7.68
2023-05-03T23:18:29.269Z,7.67
2023-05-03T23:20:56.733Z,7.67
2023-05-03T23:23:25.126Z,7.66
2023-05-03T23:25:52.953Z,7.65
2023-05-03T23:28:20.991Z,7.65
2023-05-03T23:30:48.397Z,7.64
2023-05-03T23:33:16.699Z,7.64
2023-05-03T23:35:44.594Z,7.62
2023-05-03T23:38:12.170Z,7.59
2023-05-03T23:40:41.651Z,7.57
2023-05-03T23:43:11.711Z,7.56
2023-05-03T23:45:38.555Z,7.54
2023-05-03T23:48:05.651Z,7.50
2023-05-03T23:50:32.546Z,7.47
2023-05-03T23:52:59.468Z,7.44
2023-05-03T23:55:26.599Z,7.41
2023-05-03T23:57:53.941Z,7.39
